Time;durP1;ratioP1;P1;durP2;ratioP2;P2;SDS_P1;SDS_P2;PMS_P1;PMS_P2;Temp;Humidity;BMP_temperature;BMP_pressure;BME280_temperature;BME280_humidity;BME280_pressure;Samples;Min_cycle;Max_cycle;Signal;HPM_P1;HPM_P2
2021/12/01 00:00:47;;;;;;;;;;;9.30;99.90;;;;;;4955691;29;20291;-80
2021/12/01 00:03:13;;;;;;;;;;;9.30;99.90;;;;;;4947992;28;19926;-81
2021/12/01 00:05:39;;;;;;;;;;;9.30;99.90;;;;;;4958642;28;19926;-79
2021/12/01 00:08:05;;;;;;;;;;;9.20;99.90;;;;;;4974547;28;19926;-80
2021/12/01 00:10:34;;;;;;;;;;;9.30;99.90;;;;;;4959083;28;19976;-79
2021/12/01 00:13:00;;;;;;;;;;;9.30;99.90;;;;;;4974020;28;19945;-79
2021/12/01 00:15:25;;;;;;;;;;;9.30;99.90;;;;;;4958936;28;19949;-79
2021/12/01 00:17:51;;;;;;;;;;;9.30;99.90;;;;;;4942600;29;19926;-80
2021/12/01 00:20:18;;;;;;;;;;;9.30;99.90;;;;;;4968266;28;19930;-79
2021/12/01 00:22:43;;;;;;;;;;;9.30;99.90;;;;;;4958568;28;19933;-80
2021/12/01 00:25:10;;;;;;;;;;;9.30;99.90;;;;;;4957839;28;19926;-79
2021/12/01 00:27:36;;;;;;;;;;;9.30;99.90;;;;;;4965867;28;19927;-78
2021/12/01 00:30:02;;;;;;;;;;;9.40;99.90;;;;;;4923447;29;20017;-79
2021/12/01 00:32:28;;;;;;;;;;;9.30;99.90;;;;;;4955098;29;19966;-79
2021/12/01 00:34:54;;;;;;;;;;;9.30;99.90;;;;;;4956135;28;19968;-79
2021/12/01 00:37:20;;;;;;;;;;;9.30;99.90;;;;;;4957698;28;19926;-79
2021/12/01 00:39:46;;;;;;;;;;;9.30;99.90;;;;;;4974076;28;19926;-80
2021/12/01 00:42:12;;;;;;;;;;;9.30;99.90;;;;;;4958499;28;19980;-79
2021/12/01 00:44:45;;;;;;;;;;;9.30;99.90;;;;;;4957848;28;19930;-79
2021/12/01 00:47:12;;;;;;;;;;;9.30;99.90;;;;;;4958433;28;19980;-79
2021/12/01 00:49:38;;;;;;;;;;;9.30;99.90;;;;;;4958245;28;20415;-79
2021/12/01 00:52:03;;;;;;;;;;;9.40;99.90;;;;;;4938844;29;19926;-80
2021/12/01 00:54:29;;;;;;;;;;;9.40;99.90;;;;;;4923168;28;20323;-79
2021/12/01 00:56:55;;;;;;;;;;;9.30;99.90;;;;;;4954664;29;19949;-80
2021/12/01 00:59:20;;;;;;;;;;;9.40;99.90;;;;;;4966913;28;19926;-79
2021/12/01 01:01:46;;;;;;;;;;;9.40;99.90;;;;;;4956487;28;20299;-80
2021/12/01 01:04:12;;;;;;;;;;;9.40;99.90;;;;;;4942050;28;20013;-80
2021/12/01 01:06:38;;;;;;;;;;;9.40;99.90;;;;;;4938283;29;20086;-79
2021/12/01 01:09:05;;;;;;;;;;;9.40;99.90;;;;;;4954613;29;19927;-79
2021/12/01 01:17:06;;;;;;;;;;;9.40;99.90;;;;;;4959868;28;19926;-81
2021/12/01 01:19:32;;;;;;;;;;;9.40;99.90;;;;;;4957348;28;19934;-81
2021/12/01 01:22:00;;;;;;;;;;;9.40;99.90;;;;;;4973516;28;19957;-81
2021/12/01 01:24:25;;;;;;;;;;;9.40;99.90;;;;;;4960061;28;19941;-81
2021/12/01 01:26:51;;;;;;;;;;;9.50;99.90;;;;;;4940662;28;20001;-82
2021/12/01 01:29:21;;;;;;;;;;;9.50;99.90;;;;;;4954255;29;19981;-80
2021/12/01 01:31:48;;;;;;;;;;;9.50;99.90;;;;;;4938609;29;19996;-81
2021/12/01 01:34:14;;;;;;;;;;;9.50;99.90;;;;;;4955132;28;19970;-81
2021/12/01 01:36:39;;;;;;;;;;;9.50;99.90;;;;;;4941048;28;19937;-81
2021/12/01 01:39:05;;;;;;;;;;;9.50;99.90;;;;;;4952206;29;20371;-81
2021/12/01 01:41:31;;;;;;;;;;;9.50;99.90;;;;;;4938530;29;19930;-81
2021/12/01 01:43:57;;;;;;;;;;;9.50;99.90;;;;;;4938219;29;19934;-81
2021/12/01 01:46:22;;;;;;;;;;;9.50;99.90;;;;;;4938175;29;20283;-81
2021/12/01 01:48:55;;;;;;;;;;;9.50;99.90;;;;;;4940421;29;19989;-81
2021/12/01 01:51:22;;;;;;;;;;;9.50;99.90;;;;;;4954509;29;20028;-81
2021/12/01 01:53:50;;;;;;;;;;;9.50;99.90;;;;;;4954321;29;19927;-81
2021/12/01 01:56:16;;;;;;;;;;;9.60;99.90;;;;;;4938037;29;20368;-81
2021/12/01 01:58:41;;;;;;;;;;;9.50;99.90;;;;;;4945647;29;19933;-81
2021/12/01 02:01:16;;;;;;;;;;;9.60;99.90;;;;;;4953911;29;19997;-81
2021/12/01 02:03:44;;;;;;;;;;;9.60;99.90;;;;;;4954333;29;19927;-81
2021/12/01 02:06:10;;;;;;;;;;;9.60;99.90;;;;;;4937601;29;20406;-81
2021/12/01 02:08:39;;;;;;;;;;;9.60;99.90;;;;;;4939505;28;19926;-81
2021/12/01 02:11:07;;;;;;;;;;;9.60;99.90;;;;;;4940410;29;19927;-81
2021/12/01 02:13:32;;;;;;;;;;;9.60;99.90;;;;;;4942937;29;20029;-81
2021/12/01 02:15:58;;;;;;;;;;;9.60;99.90;;;;;;4941757;29;20079;-81
2021/12/01 02:18:24;;;;;;;;;;;9.60;99.90;;;;;;4942930;28;19923;-81
2021/12/01 02:21:05;;;;;;;;;;;9.60;99.90;;;;;;4953872;28;19926;-81
2021/12/01 02:23:31;;;;;;;;;;;9.60;99.90;;;;;;4960956;28;20326;-81
2021/12/01 02:25:57;;;;;;;;;;;9.60;99.90;;;;;;4976444;28;19926;-81
2021/12/01 02:28:22;;;;;;;;;;;9.60;99.90;;;;;;4960443;28;19949;-82
2021/12/01 02:30:48;;;;;;;;;;;9.60;99.90;;;;;;4944363;29;20047;-81
2021/12/01 02:33:13;;;;;;;;;;;9.60;99.90;;;;;;4957231;29;19933;-82
2021/12/01 02:35:39;;;;;;;;;;;9.60;99.90;;;;;;4941378;29;19937;-83
2021/12/01 02:38:05;;;;;;;;;;;9.60;99.90;;;;;;4941248;29;19927;-82
2021/12/01 02:40:30;;;;;;;;;;;9.70;99.90;;;;;;4970841;28;19933;-82
2021/12/01 02:42:56;;;;;;;;;;;9.60;99.90;;;;;;4941401;29;19933;-82
2021/12/01 02:45:22;;;;;;;;;;;9.60;99.90;;;;;;4956804;29;19934;-82
2021/12/01 02:47:47;;;;;;;;;;;9.60;99.90;;;;;;4941311;29;20398;-82
2021/12/01 02:50:13;;;;;;;;;;;9.60;99.90;;;;;;4959683;28;20065;-82
2021/12/01 02:52:39;;;;;;;;;;;9.60;99.90;;;;;;4953337;29;20388;-82
2021/12/01 02:55:05;;;;;;;;;;;9.70;99.90;;;;;;4956897;29;19966;-82
2021/12/01 02:57:45;;;;;;;;;;;9.70;99.90;;;;;;4957229;29;20394;-81
2021/12/01 03:00:11;;;;;;;;;;;9.70;99.90;;;;;;4957840;28;19926;-82
2021/12/01 03:02:37;;;;;;;;;;;9.70;99.90;;;;;;4941392;29;19926;-82
2021/12/01 03:05:03;;;;;;;;;;;9.70;99.90;;;;;;4940638;29;20005;-82
2021/12/01 03:07:30;;;;;;;;;;;9.60;99.90;;;;;;4941060;29;19933;-83
2021/12/01 03:09:55;;;;;;;;;;;9.70;99.90;;;;;;4941033;29;19933;-82
2021/12/01 03:12:21;;;;;;;;;;;9.70;99.90;;;;;;4971129;28;19926;-81
2021/12/01 03:14:48;;;;;;;;;;;9.70;99.90;;;;;;4976245;28;20013;-81
2021/12/01 03:17:13;;;;;;;;;;;9.80;99.90;;;;;;4975911;28;19985;-81
2021/12/01 03:19:39;;;;;;;;;;;9.80;99.90;;;;;;4959965;28;19934;-80
2021/12/01 03:22:04;;;;;;;;;;;9.80;99.90;;;;;;4942149;28;19926;-81
2021/12/01 03:24:33;;;;;;;;;;;9.80;99.90;;;;;;4959855;28;19981;-80
2021/12/01 03:26:59;;;;;;;;;;;9.80;99.90;;;;;;4975083;28;19961;-80
2021/12/01 03:29:24;;;;;;;;;;;9.80;99.90;;;;;;4943554;28;19977;-81
2021/12/01 03:31:50;;;;;;;;;;;9.80;99.90;;;;;;4957923;28;19933;-81
2021/12/01 03:34:15;;;;;;;;;;;9.90;99.90;;;;;;4939622;29;19926;-81
2021/12/01 03:36:41;;;;;;;;;;;9.90;99.90;;;;;;4956181;29;19927;-80
2021/12/01 03:39:07;;;;;;;;;;;9.90;99.90;;;;;;4939791;29;19930;-80
2021/12/01 03:41:34;;;;;;;;;;;9.90;99.90;;;;;;4924541;29;19934;-80
2021/12/01 03:43:59;;;;;;;;;;;9.90;99.90;;;;;;4966540;28;19926;-80
2021/12/01 03:46:25;;;;;;;;;;;9.90;99.90;;;;;;4958945;28;19949;-81
2021/12/01 03:48:51;;;;;;;;;;;9.90;99.90;;;;;;4943568;28;19933;-80
2021/12/01 03:51:16;;;;;;;;;;;9.90;99.90;;;;;;4975130;28;19926;-80
2021/12/01 03:53:42;;;;;;;;;;;9.80;99.90;;;;;;4964127;28;19927;-80
2021/12/01 03:56:07;;;;;;;;;;;9.80;99.90;;;;;;4955966;29;19973;-80
2021/12/01 03:58:33;;;;;;;;;;;9.80;99.90;;;;;;4939723;29;19926;-80
2021/12/01 04:00:58;;;;;;;;;;;9.80;99.90;;;;;;4940125;29;19977;-80
2021/12/01 04:03:24;;;;;;;;;;;9.80;99.90;;;;;;4940642;29;20343;-80
2021/12/01 04:05:50;;;;;;;;;;;9.80;99.90;;;;;;4972291;28;19927;-80
2021/12/01 04:08:15;;;;;;;;;;;9.70;99.90;;;;;;4958736;28;19926;-80
2021/12/01 04:10:41;;;;;;;;;;;9.70;99.90;;;;;;4959059;28;19926;-79
2021/12/01 04:13:07;;;;;;;;;;;9.70;99.90;;;;;;4942351;28;19930;-83
2021/12/01 04:15:32;;;;;;;;;;;9.70;99.90;;;;;;4939094;29;19926;-80
2021/12/01 04:17:58;;;;;;;;;;;9.70;99.90;;;;;;4957557;28;19930;-80
2021/12/01 04:20:24;;;;;;;;;;;9.70;99.90;;;;;;4939167;29;19969;-80
2021/12/01 04:22:50;;;;;;;;;;;9.70;99.90;;;;;;4939541;29;19934;-80
2021/12/01 04:25:16;;;;;;;;;;;9.70;99.90;;;;;;4960073;28;19933;-80
2021/12/01 04:27:42;;;;;;;;;;;9.70;99.90;;;;;;4954769;28;19926;-80
2021/12/01 04:30:09;;;;;;;;;;;9.70;99.90;;;;;;4963578;28;19926;-80
2021/12/01 04:32:35;;;;;;;;;;;9.70;99.90;;;;;;4972797;28;19926;-80
2021/12/01 04:35:01;;;;;;;;;;;9.70;99.90;;;;;;4975170;28;19973;-80
2021/12/01 04:37:27;;;;;;;;;;;9.70;99.90;;;;;;4974408;28;19937;-80
2021/12/01 04:39:53;;;;;;;;;;;9.70;99.90;;;;;;4958198;28;19926;-80
2021/12/01 04:42:19;;;;;;;;;;;9.70;99.90;;;;;;4958314;28;19926;-80
2021/12/01 04:44:46;;;;;;;;;;;9.70;99.90;;;;;;4940586;28;19926;-80
2021/12/01 04:47:14;;;;;;;;;;;9.70;99.90;;;;;;4973699;28;20379;-81
2021/12/01 04:49:40;;;;;;;;;;;9.70;99.90;;;;;;4974131;28;20383;-80
2021/12/01 04:52:06;;;;;;;;;;;9.70;99.90;;;;;;4958354;28;19973;-81
2021/12/01 04:54:33;;;;;;;;;;;9.70;99.90;;;;;;4956268;28;20013;-80
2021/12/01 04:57:00;;;;;;;;;;;9.70;99.90;;;;;;4958060;28;20351;-80
2021/12/01 04:59:26;;;;;;;;;;;9.70;99.90;;;;;;4974014;28;19973;-80
2021/12/01 05:01:56;;;;;;;;;;;9.70;99.90;;;;;;4958139;28;19980;-81
2021/12/01 05:04:21;;;;;;;;;;;9.80;99.90;;;;;;4973497;28;20009;-81
2021/12/01 05:06:47;;;;;;;;;;;9.80;99.90;;;;;;4956823;28;20327;-81
2021/12/01 05:09:13;;;;;;;;;;;9.80;99.90;;;;;;4952128;29;19926;-83
2021/12/01 05:11:39;;;;;;;;;;;9.80;99.90;;;;;;4954568;29;19934;-82
2021/12/01 05:14:04;;;;;;;;;;;9.80;99.90;;;;;;4954737;28;19930;-82
2021/12/01 05:16:30;;;;;;;;;;;9.80;99.90;;;;;;4954032;28;20028;-82
2021/12/01 05:18:55;;;;;;;;;;;9.90;99.90;;;;;;4938717;29;19930;-81
2021/12/01 05:21:21;;;;;;;;;;;9.90;99.90;;;;;;4954401;29;19927;-82
2021/12/01 05:23:46;;;;;;;;;;;9.90;99.90;;;;;;4954783;29;20142;-81
2021/12/01 05:26:12;;;;;;;;;;;9.90;99.90;;;;;;4962889;28;19926;-81
2021/12/01 05:28:39;;;;;;;;;;;9.90;99.90;;;;;;4948787;28;19933;-82
2021/12/01 05:31:05;;;;;;;;;;;9.90;99.90;;;;;;4948517;28;20260;-81
2021/12/01 05:33:30;;;;;;;;;;;9.90;99.90;;;;;;4946393;28;19934;-81
2021/12/01 05:35:56;;;;;;;;;;;9.90;99.90;;;;;;4964166;28;20371;-81
2021/12/01 05:38:22;;;;;;;;;;;9.90;99.90;;;;;;4962323;28;20407;-81
2021/12/01 05:40:50;;;;;;;;;;;9.90;99.90;;;;;;4959533;28;19930;-81
2021/12/01 05:43:16;;;;;;;;;;;9.80;99.90;;;;;;4947237;28;19926;-84
2021/12/01 05:45:41;;;;;;;;;;;9.80;99.90;;;;;;4949924;28;19926;-84
2021/12/01 05:48:07;;;;;;;;;;;9.80;99.90;;;;;;4948574;28;19930;-84
2021/12/01 05:50:33;;;;;;;;;;;9.80;99.90;;;;;;4968476;28;20291;-84
2021/12/01 05:52:58;;;;;;;;;;;9.70;99.90;;;;;;4937186;28;19981;-84
2021/12/01 05:55:24;;;;;;;;;;;9.70;99.90;;;;;;4950757;28;19922;-84
2021/12/01 05:57:50;;;;;;;;;;;9.70;99.90;;;;;;4951211;28;19932;-85
2021/12/01 06:00:16;;;;;;;;;;;9.70;99.90;;;;;;4970173;28;19921;-85
2021/12/01 06:02:48;;;;;;;;;;;9.60;99.90;;;;;;4969449;28;19923;-82
2021/12/01 06:05:14;;;;;;;;;;;9.60;99.90;;;;;;4957647;28;19930;-80
2021/12/01 06:07:39;;;;;;;;;;;9.60;99.90;;;;;;4958946;28;19984;-82
2021/12/01 06:10:05;;;;;;;;;;;9.60;99.90;;;;;;4967220;28;19926;-82
2021/12/01 06:12:32;;;;;;;;;;;9.60;99.90;;;;;;4941647;29;19934;-82
2021/12/01 06:14:58;;;;;;;;;;;9.60;99.90;;;;;;4943837;28;20398;-81
2021/12/01 06:17:24;;;;;;;;;;;9.60;99.90;;;;;;4976537;28;19927;-82
2021/12/01 06:19:49;;;;;;;;;;;9.60;99.90;;;;;;4969354;28;20379;-81
2021/12/01 06:22:15;;;;;;;;;;;9.50;99.90;;;;;;4925922;29;20383;-81
2021/12/01 06:24:40;;;;;;;;;;;9.50;99.90;;;;;;4941556;29;20431;-82
2021/12/01 06:27:06;;;;;;;;;;;9.50;99.90;;;;;;4945521;29;19926;-82
2021/12/01 06:29:32;;;;;;;;;;;9.50;99.90;;;;;;4958501;28;19927;-82
2021/12/01 06:31:57;;;;;;;;;;;9.50;99.90;;;;;;4925447;29;19960;-82
2021/12/01 06:34:23;;;;;;;;;;;9.50;99.90;;;;;;4925356;29;20036;-82
2021/12/01 06:36:48;;;;;;;;;;;9.50;99.90;;;;;;4931446;29;19927;-82
2021/12/01 06:39:14;;;;;;;;;;;9.50;99.90;;;;;;4956362;29;20286;-82
2021/12/01 06:41:40;;;;;;;;;;;9.50;99.90;;;;;;4942127;29;19926;-82
2021/12/01 06:44:06;;;;;;;;;;;9.50;99.90;;;;;;4941752;28;20427;-82
2021/12/01 06:46:31;;;;;;;;;;;9.50;99.90;;;;;;4926273;28;19926;-82
2021/12/01 06:48:57;;;;;;;;;;;9.50;99.90;;;;;;4954859;28;19934;-82
2021/12/01 06:51:23;;;;;;;;;;;9.50;99.90;;;;;;4960417;28;19973;-82
2021/12/01 06:53:49;;;;;;;;;;;9.50;99.90;;;;;;4960433;28;19926;-81
2021/12/01 06:56:16;;;;;;;;;;;9.50;99.90;;;;;;4944475;28;19930;-81
2021/12/01 06:58:42;;;;;;;;;;;9.60;99.90;;;;;;4956841;28;19973;-81
2021/12/01 07:01:07;;;;;;;;;;;9.60;99.90;;;;;;4967980;28;19930;-81
2021/12/01 07:03:33;;;;;;;;;;;9.60;99.90;;;;;;4944023;28;20386;-81
2021/12/01 07:06:00;;;;;;;;;;;9.60;99.90;;;;;;4957004;28;19973;-81
2021/12/01 07:08:25;;;;;;;;;;;9.60;99.90;;;;;;4960245;28;20008;-88
2021/12/01 07:10:51;;;;;;;;;;;9.60;99.90;;;;;;4943718;28;20016;-81
2021/12/01 07:13:17;;;;;;;;;;;9.50;99.90;;;;;;4958524;28;19926;-81
2021/12/01 07:15:43;;;;;;;;;;;9.60;99.90;;;;;;4958987;28;20275;-82
2021/12/01 07:18:08;;;;;;;;;;;9.60;99.90;;;;;;4960156;28;19926;-83
2021/12/01 07:20:34;;;;;;;;;;;9.60;99.90;;;;;;4959904;28;19933;-85
2021/12/01 07:23:02;;;;;;;;;;;9.60;99.90;;;;;;4959926;28;20013;-90
2021/12/01 07:25:27;;;;;;;;;;;9.60;99.90;;;;;;4947206;28;19930;-87
2021/12/01 07:27:53;;;;;;;;;;;9.50;99.90;;;;;;4950180;29;19933;-85
2021/12/01 07:30:19;;;;;;;;;;;9.50;99.90;;;;;;4953259;29;20009;-84
2021/12/01 07:32:44;;;;;;;;;;;9.50;99.90;;;;;;4934645;28;20013;-86
2021/12/01 07:35:10;;;;;;;;;;;9.50;99.90;;;;;;4965400;28;20291;-87
2021/12/01 07:37:35;;;;;;;;;;;9.50;99.90;;;;;;4946660;29;19926;-86
2021/12/01 07:40:01;;;;;;;;;;;9.50;99.90;;;;;;4944026;29;19993;-86
2021/12/01 07:42:27;;;;;;;;;;;9.50;99.90;;;;;;4932984;28;19929;-86
2021/12/01 07:44:52;;;;;;;;;;;9.50;99.90;;;;;;4949196;28;20013;-80
2021/12/01 07:47:18;;;;;;;;;;;9.50;99.90;;;;;;4949725;28;19929;-79
2021/12/01 07:49:43;;;;;;;;;;;9.50;99.90;;;;;;4949783;28;19926;-83
2021/12/01 07:52:09;;;;;;;;;;;9.50;99.90;;;;;;4959477;28;19926;-80
2021/12/01 07:54:36;;;;;;;;;;;9.40;99.90;;;;;;4974973;28;19985;-81
2021/12/01 07:57:02;;;;;;;;;;;9.30;99.90;;;;;;4959411;28;20342;-82
2021/12/01 07:59:28;;;;;;;;;;;9.10;99.90;;;;;;4939918;29;20021;-83
2021/12/01 08:01:53;;;;;;;;;;;9.00;99.90;;;;;;4966618;28;20030;-82
2021/12/01 08:04:19;;;;;;;;;;;8.80;99.90;;;;;;4924212;29;19985;-82
2021/12/01 08:06:44;;;;;;;;;;;8.80;99.90;;;;;;4923722;29;19927;-83
2021/12/01 08:09:10;;;;;;;;;;;8.80;99.90;;;;;;4923746;29;19923;-81
2021/12/01 08:11:38;;;;;;;;;;;8.70;99.90;;;;;;4972989;28;20008;-87
2021/12/01 08:14:05;;;;;;;;;;;8.80;99.90;;;;;;4959224;28;19922;-82
2021/12/01 08:16:30;;;;;;;;;;;8.80;99.90;;;;;;4975244;28;19969;-82
2021/12/01 08:18:56;;;;;;;;;;;8.90;99.90;;;;;;4958967;28;19926;-81
2021/12/01 08:21:22;;;;;;;;;;;8.90;99.90;;;;;;4971676;28;20375;-84
2021/12/01 08:23:48;;;;;;;;;;;9.00;99.90;;;;;;4963852;28;19930;-84
2021/12/01 08:26:14;;;;;;;;;;;9.00;99.90;;;;;;4955731;28;19929;-85
2021/12/01 08:28:41;;;;;;;;;;;9.00;99.90;;;;;;4954030;28;20256;-85
2021/12/01 08:31:07;;;;;;;;;;;9.10;99.90;;;;;;4957813;28;19921;-85
2021/12/01 08:33:32;;;;;;;;;;;9.10;99.90;;;;;;4976239;28;20260;-85
2021/12/01 08:35:58;;;;;;;;;;;9.00;99.90;;;;;;4971797;28;19922;-87
2021/12/01 08:38:24;;;;;;;;;;;9.00;99.90;;;;;;4950789;28;19977;-86
2021/12/01 08:40:49;;;;;;;;;;;9.00;99.90;;;;;;4950543;28;19926;-83
2021/12/01 08:43:15;;;;;;;;;;;9.00;99.90;;;;;;4955505;28;20363;-85
2021/12/01 08:45:41;;;;;;;;;;;8.90;99.90;;;;;;4968621;28;19926;-83
2021/12/01 08:48:06;;;;;;;;;;;8.80;99.90;;;;;;4957655;28;20413;-86
2021/12/01 08:50:33;;;;;;;;;;;8.70;99.90;;;;;;4940949;28;19929;-85
2021/12/01 08:52:58;;;;;;;;;;;8.60;99.90;;;;;;4937938;29;19922;-84
2021/12/01 08:55:24;;;;;;;;;;;8.60;99.90;;;;;;4941000;28;19926;-87
2021/12/01 08:57:50;;;;;;;;;;;8.60;99.90;;;;;;4957593;28;19959;-86
2021/12/01 09:00:16;;;;;;;;;;;8.60;99.90;;;;;;4972081;28;20433;-83
2021/12/01 09:02:42;;;;;;;;;;;8.60;99.90;;;;;;4970128;28;19926;-84
2021/12/01 09:05:08;;;;;;;;;;;8.60;99.90;;;;;;4952175;28;19930;-83
2021/12/01 09:07:34;;;;;;;;;;;8.70;99.90;;;;;;4935659;28;19992;-86
2021/12/01 09:09:59;;;;;;;;;;;8.70;99.90;;;;;;4953169;28;20371;-84
2021/12/01 09:12:25;;;;;;;;;;;8.70;99.90;;;;;;4940932;28;20335;-83
2021/12/01 09:14:52;;;;;;;;;;;8.70;99.90;;;;;;4938696;28;19958;-83
2021/12/01 09:17:17;;;;;;;;;;;8.70;99.90;;;;;;4973258;28;19930;-83
2021/12/01 09:19:43;;;;;;;;;;;8.70;99.90;;;;;;4970867;28;19933;-84
2021/12/01 09:22:09;;;;;;;;;;;8.70;99.90;;;;;;4956857;28;19934;-85
2021/12/01 09:24:35;;;;;;;;;;;8.80;99.90;;;;;;4969802;28;19926;-85
2021/12/01 09:27:06;;;;;;;;;;;8.80;99.90;;;;;;4953134;28;19922;-82
2021/12/01 09:29:33;;;;;;;;;;;8.90;99.90;;;;;;4972751;28;19922;-82
2021/12/01 09:31:59;;;;;;;;;;;8.90;99.90;;;;;;4953923;28;19926;-84
2021/12/01 09:34:24;;;;;;;;;;;8.90;99.90;;;;;;4952467;28;19977;-84
2021/12/01 09:36:50;;;;;;;;;;;8.90;99.90;;;;;;4959156;28;20355;-81
2021/12/01 09:39:16;;;;;;;;;;;8.90;99.90;;;;;;4956938;28;19929;-82
2021/12/01 09:41:42;;;;;;;;;;;8.90;99.90;;;;;;4940168;28;19934;-82
2021/12/01 09:44:07;;;;;;;;;;;8.80;99.90;;;;;;4973465;28;19926;-83
2021/12/01 09:46:33;;;;;;;;;;;8.90;99.90;;;;;;4938156;28;19926;-83
2021/12/01 09:48:59;;;;;;;;;;;8.90;99.90;;;;;;4955383;28;19970;-83
2021/12/01 09:51:25;;;;;;;;;;;8.90;99.90;;;;;;4957764;28;20076;-83
2021/12/01 09:53:52;;;;;;;;;;;8.90;99.90;;;;;;4953890;28;19923;-82
2021/12/01 09:56:18;;;;;;;;;;;9.00;99.90;;;;;;4985143;28;19927;-81
2021/12/01 09:58:44;;;;;;;;;;;9.00;99.90;;;;;;4954248;28;19929;-82
2021/12/01 10:01:12;;;;;;;;;;;9.00;99.90;;;;;;4935425;28;19926;-85
2021/12/01 10:03:39;;;;;;;;;;;9.00;99.90;;;;;;4956064;28;19930;-82
2021/12/01 10:06:13;;;;;;;;;;;9.00;99.90;;;;;;4969930;28;19922;-86
2021/12/01 10:08:41;;;;;;;;;;;9.00;99.90;;;;;;4953512;28;19984;-84
2021/12/01 10:11:10;;;;;;;;;;;8.90;99.90;;;;;;4969100;28;19926;-84
2021/12/01 10:13:37;;;;;;;;;;;9.00;99.90;;;;;;4963794;28;19970;-82
2021/12/01 10:16:05;;;;;;;;;;;9.00;99.90;;;;;;4961545;28;19926;-84
2021/12/01 10:18:35;;;;;;;;;;;8.90;99.90;;;;;;4941058;29;19974;-82
2021/12/01 10:21:06;;;;;;;;;;;9.00;99.90;;;;;;4956688;28;19972;-83
2021/12/01 10:23:33;;;;;;;;;;;9.10;99.90;;;;;;4971251;28;19926;-83
2021/12/01 10:26:07;;;;;;;;;;;9.10;99.90;;;;;;4972512;28;19941;-81
2021/12/01 10:28:37;;;;;;;;;;;9.20;99.90;;;;;;4956688;28;19926;-81
2021/12/01 10:31:03;;;;;;;;;;;9.20;99.90;;;;;;4957248;28;19927;-80
2021/12/01 10:33:30;;;;;;;;;;;9.30;99.90;;;;;;4976485;28;20017;-83
2021/12/01 10:36:03;;;;;;;;;;;9.30;99.90;;;;;;4940852;29;19982;-81
2021/12/01 10:38:36;;;;;;;;;;;9.30;99.90;;;;;;4959692;28;19926;-81
2021/12/01 10:41:10;;;;;;;;;;;9.30;99.90;;;;;;4952200;28;20408;-83
2021/12/01 10:43:40;;;;;;;;;;;9.50;99.90;;;;;;4974689;28;19926;-82
2021/12/01 10:46:07;;;;;;;;;;;9.60;99.90;;;;;;4976056;28;19926;-82
2021/12/01 10:48:33;;;;;;;;;;;9.60;99.90;;;;;;4976208;28;19926;-83
2021/12/01 10:50:59;;;;;;;;;;;9.50;99.90;;;;;;4969108;28;19933;-82
2021/12/01 10:53:26;;;;;;;;;;;9.40;99.90;;;;;;4965375;28;19927;-83
2021/12/01 10:55:58;;;;;;;;;;;9.20;99.90;;;;;;4971874;28;20383;-85
2021/12/01 10:58:38;;;;;;;;;;;9.20;99.90;;;;;;4960078;28;19969;-84
2021/12/01 11:01:05;;;;;;;;;;;9.00;99.90;;;;;;4959667;28;20453;-83
2021/12/01 11:03:32;;;;;;;;;;;8.90;99.90;;;;;;4950649;28;20069;-84
2021/12/01 11:06:08;;;;;;;;;;;8.90;99.90;;;;;;4958002;28;19937;-82
2021/12/01 11:08:36;;;;;;;;;;;8.80;99.90;;;;;;4960211;28;20287;-85
2021/12/01 11:11:06;;;;;;;;;;;8.70;99.90;;;;;;4952717;28;19985;-84
2021/12/01 11:13:32;;;;;;;;;;;8.60;99.90;;;;;;4971289;28;19933;-87
2021/12/01 11:15:59;;;;;;;;;;;8.50;99.90;;;;;;4964703;28;20390;-93
2021/12/01 11:18:26;;;;;;;;;;;8.50;99.90;;;;;;4969468;28;19926;-88
2021/12/01 11:20:53;;;;;;;;;;;8.50;99.90;;;;;;4960069;28;19935;-87
2021/12/01 11:23:33;;;;;;;;;;;8.40;99.90;;;;;;4955369;28;19962;-84
2021/12/01 11:26:12;;;;;;;;;;;8.20;99.90;;;;;;4988898;28;19926;-85
2021/12/01 11:28:49;;;;;;;;;;;8.30;99.90;;;;;;4975961;28;20346;-85
2021/12/01 11:31:37;;;;;;;;;;;8.30;99.90;;;;;;4975566;28;20279;-87
2021/12/01 11:34:05;;;;;;;;;;;8.30;99.90;;;;;;4943006;28;19933;-89
2021/12/01 11:36:35;;;;;;;;;;;8.30;99.90;;;;;;4973964;28;19994;-89
2021/12/01 11:39:01;;;;;;;;;;;8.20;99.90;;;;;;4966063;28;19926;-87
2021/12/01 11:41:28;;;;;;;;;;;8.20;99.90;;;;;;4959571;28;19961;-84
2021/12/01 11:43:55;;;;;;;;;;;8.20;99.90;;;;;;4967264;28;19949;-85
2021/12/01 11:46:20;;;;;;;;;;;8.20;99.90;;;;;;4968147;28;19980;-84
2021/12/01 11:48:48;;;;;;;;;;;8.20;99.90;;;;;;4976701;28;19926;-85
2021/12/01 11:51:20;;;;;;;;;;;8.20;99.90;;;;;;4972737;28;20126;-83
2021/12/01 11:53:51;;;;;;;;;;;8.10;99.90;;;;;;4945816;28;19930;-82
2021/12/01 11:56:17;;;;;;;;;;;8.00;99.90;;;;;;4959202;28;19926;-85
2021/12/01 11:58:50;;;;;;;;;;;8.00;99.90;;;;;;4961646;28;19934;-85
2021/12/01 12:01:22;;;;;;;;;;;8.00;99.90;;;;;;4959072;28;20026;-88
2021/12/01 12:03:54;;;;;;;;;;;8.00;99.90;;;;;;4959056;28;19973;-85
2021/12/01 12:06:19;;;;;;;;;;;7.90;99.90;;;;;;4957466;28;19976;-83
2021/12/01 12:08:54;;;;;;;;;;;8.00;99.90;;;;;;4974752;28;20009;-83
2021/12/01 12:11:32;;;;;;;;;;;8.10;99.90;;;;;;4974332;28;20298;-82
2021/12/01 12:13:58;;;;;;;;;;;8.10;99.90;;;;;;4959164;28;19925;-89
2021/12/01 12:16:24;;;;;;;;;;;8.10;99.90;;;;;;4971739;28;19926;-83
2021/12/01 12:18:52;;;;;;;;;;;8.10;99.90;;;;;;4938232;28;20398;-83
2021/12/01 12:21:22;;;;;;;;;;;8.00;99.90;;;;;;4965166;28;19934;-81
2021/12/01 12:23:49;;;;;;;;;;;7.90;99.90;;;;;;4953797;28;19930;-83
2021/12/01 12:26:30;;;;;;;;;;;7.90;99.90;;;;;;4975839;28;20012;-84
2021/12/01 12:29:05;;;;;;;;;;;7.90;99.90;;;;;;4976210;28;20290;-85
2021/12/01 12:31:31;;;;;;;;;;;7.90;99.90;;;;;;4974448;28;19926;-85
2021/12/01 12:33:58;;;;;;;;;;;8.00;99.90;;;;;;4951299;28;20305;-83
2021/12/01 12:36:38;;;;;;;;;;;7.90;99.90;;;;;;4981867;28;20295;-83
2021/12/01 12:39:23;;;;;;;;;;;8.00;99.90;;;;;;4955024;28;20322;-82
2021/12/01 12:41:55;;;;;;;;;;;8.00;99.90;;;;;;4957057;28;19930;-82
2021/12/01 12:44:39;;;;;;;;;;;7.90;99.90;;;;;;4973128;28;19933;-82
2021/12/01 12:47:08;;;;;;;;;;;7.80;99.90;;;;;;4973189;28;20052;-83
2021/12/01 12:49:36;;;;;;;;;;;7.70;99.90;;;;;;4955995;28;19933;-83
2021/12/01 12:52:20;;;;;;;;;;;7.70;99.90;;;;;;4954563;28;19926;-81
2021/12/01 12:54:46;;;;;;;;;;;7.60;99.90;;;;;;4974909;28;19934;-84
2021/12/01 12:57:14;;;;;;;;;;;7.50;99.90;;;;;;4954993;28;19927;-81
2021/12/01 12:59:39;;;;;;;;;;;7.30;99.90;;;;;;4957774;28;20375;-81
2021/12/01 13:02:09;;;;;;;;;;;7.30;99.90;;;;;;4941248;28;19926;-82
2021/12/01 13:05:02;;;;;;;;;;;7.20;99.90;;;;;;4971374;28;20260;-82
2021/12/01 13:07:34;;;;;;;;;;;7.20;99.90;;;;;;4958856;28;19930;-80
2021/12/01 13:10:19;;;;;;;;;;;7.10;99.90;;;;;;4951514;28;20126;-84
2021/12/01 13:12:44;;;;;;;;;;;7.10;99.90;;;;;;4952052;28;19933;-81
2021/12/01 13:15:28;;;;;;;;;;;7.00;99.90;;;;;;4957762;28;19926;-81
2021/12/01 13:17:59;;;;;;;;;;;6.90;99.90;;;;;;4968803;28;20277;-84
2021/12/01 13:20:26;;;;;;;;;;;6.90;99.90;;;;;;4972506;28;19932;-79
2021/12/01 13:23:03;;;;;;;;;;;7.00;99.90;;;;;;4974404;28;19926;-79
2021/12/01 13:25:28;;;;;;;;;;;7.00;99.90;;;;;;4951698;28;19926;-80
2021/12/01 13:27:54;;;;;;;;;;;6.90;99.90;;;;;;4973038;28;19984;-81
2021/12/01 13:30:19;;;;;;;;;;;6.80;99.90;;;;;;4969944;28;20291;-82
2021/12/01 13:32:45;;;;;;;;;;;6.80;99.90;;;;;;4968762;28;19930;-81
2021/12/01 13:35:11;;;;;;;;;;;6.80;99.90;;;;;;4955734;28;19941;-85
2021/12/01 13:37:36;;;;;;;;;;;6.90;99.90;;;;;;4954630;28;20009;-82
2021/12/01 13:40:09;;;;;;;;;;;6.90;99.90;;;;;;4971814;28;19937;-83
2021/12/01 13:42:35;;;;;;;;;;;6.80;99.90;;;;;;4978639;28;19930;-80
2021/12/01 13:45:00;;;;;;;;;;;6.90;99.90;;;;;;4954498;28;20284;-84
2021/12/01 13:47:28;;;;;;;;;;;6.90;99.90;;;;;;4971760;28;19989;-81
2021/12/01 13:49:56;;;;;;;;;;;6.90;99.90;;;;;;4956130;28;19926;-81
2021/12/01 13:52:29;;;;;;;;;;;7.00;99.90;;;;;;4959211;28;19934;-79
2021/12/01 13:54:55;;;;;;;;;;;7.00;99.90;;;;;;4955773;28;19992;-80
2021/12/01 13:57:21;;;;;;;;;;;7.10;99.90;;;;;;4966517;28;19933;-79
2021/12/01 13:59:48;;;;;;;;;;;7.20;99.90;;;;;;4939697;28;19930;-83
2021/12/01 14:02:42;;;;;;;;;;;7.20;99.90;;;;;;4973025;28;20041;-81
2021/12/01 14:05:09;;;;;;;;;;;7.10;99.90;;;;;;4951638;28;19965;-82
2021/12/01 14:07:41;;;;;;;;;;;7.10;99.90;;;;;;4961793;28;19933;-82
2021/12/01 14:10:09;;;;;;;;;;;7.10;99.90;;;;;;4959141;28;20287;-86
2021/12/01 14:12:35;;;;;;;;;;;7.20;99.90;;;;;;4979217;28;19926;-80
2021/12/01 14:15:01;;;;;;;;;;;7.20;99.90;;;;;;4975591;28;19936;-85
2021/12/01 14:17:28;;;;;;;;;;;7.20;99.90;;;;;;4943263;28;19938;-82
2021/12/01 14:19:55;;;;;;;;;;;7.20;99.90;;;;;;4970420;28;19933;-85
2021/12/01 14:22:22;;;;;;;;;;;7.20;99.90;;;;;;4953985;28;20358;-85
2021/12/01 14:24:55;;;;;;;;;;;7.10;99.90;;;;;;4979167;28;19925;-91
2021/12/01 14:27:29;;;;;;;;;;;7.10;99.90;;;;;;4970521;28;19926;-84
2021/12/01 14:29:58;;;;;;;;;;;7.20;99.90;;;;;;4956512;28;20362;-79
2021/12/01 14:32:24;;;;;;;;;;;7.20;99.90;;;;;;4951109;28;19930;-80
2021/12/01 14:34:51;;;;;;;;;;;7.20;99.90;;;;;;4957583;28;20009;-78
2021/12/01 14:37:17;;;;;;;;;;;7.20;99.90;;;;;;4956232;28;19930;-80